createdAt,value
2019-02-03T11:25:53.320Z,39.34
2019-02-03T11:26:28.461Z,38.01
2019-02-03T11:27:03.773Z,51.22
2019-02-03T11:27:39.037Z,53.41
2019-02-03T11:28:14.937Z,55.21
2019-02-03T11:28:50.019Z,51.60
2019-02-03T11:29:25.212Z,49.22
2019-02-03T11:30:00.697Z,52.36
2019-02-03T11:30:36.107Z,51.41
2019-02-03T11:31:11.441Z,49.51
2019-02-03T11:31:46.937Z,47.80
2019-02-03T11:32:22.279Z,53.22
2019-02-03T11:33:04.784Z,53.69
2019-02-03T11:33:32.905Z,55.40
2019-02-03T11:34:08.383Z,53.12
2019-02-03T11:34:43.604Z,53.59
2019-02-03T11:35:18.903Z,48.94
2019-02-03T11:35:54.289Z,43.33
2019-02-03T11:36:29.609Z,44.09
2019-02-03T11:37:04.993Z,53.41
2019-02-03T11:37:40.062Z,55.78
2019-02-03T11:38:15.787Z,55.50
2019-02-03T11:38:51.253Z,52.64
2019-02-03T11:39:26.667Z,57.40
2019-02-03T11:40:02.348Z,60.16
2019-02-03T11:40:37.958Z,59.01
2019-02-03T11:41:13.170Z,57.78
2019-02-03T11:41:49.466Z,57.68
2019-02-03T11:42:23.609Z,58.35
2019-02-03T11:42:58.896Z,55.50
2019-02-03T11:43:34.300Z,58.03
2019-02-03T11:44:09.777Z,53.00
2019-02-03T11:44:45.191Z,48.18
2019-02-03T11:45:20.569Z,46.09
2019-02-03T11:45:55.902Z,45.23
2019-02-03T11:46:31.317Z,44.45
2019-02-03T11:47:06.340Z,52.43
2019-02-03T11:47:41.957Z,57.65
2019-02-03T11:48:17.496Z,58.51
2019-02-03T11:48:52.853Z,58.61
2019-02-03T11:49:28.144Z,56.23
2019-02-03T11:50:03.443Z,55.85
2019-02-03T11:50:38.850Z,53.09
2019-02-03T11:51:14.453Z,48.91
2019-02-03T11:51:49.761Z,51.57
2019-02-03T11:52:25.190Z,53.66
2019-02-03T11:53:00.427Z,52.53
2019-02-03T11:53:35.754Z,49.77
2019-02-03T11:54:10.962Z,45.23
2019-02-03T11:54:46.264Z,47.39
2019-02-03T11:55:21.680Z,52.72
2019-02-03T11:55:56.865Z,52.33
2019-02-03T11:56:32.110Z,54.71
2019-02-03T11:57:07.431Z,49.77
2019-02-03T11:57:42.638Z,49.39
2019-02-03T11:58:17.703Z,46.35
2019-02-03T11:58:52.813Z,47.77
2019-02-03T11:59:28.221Z,47.87
2019-02-03T12:00:03.507Z,51.39
2019-02-03T12:00:38.906Z,57.46
2019-02-03T12:01:16.486Z,62.69
2019-02-03T12:01:49.852Z,61.17
2019-02-03T12:02:25.245Z,55.37
2019-02-03T12:03:00.527Z,59.17
2019-02-03T12:03:36.040Z,60.69
2019-02-03T12:04:11.254Z,61.65
2019-02-03T12:04:46.457Z,55.94
2019-02-03T12:05:21.726Z,51.29
2019-02-03T12:05:57.126Z,50.24
2019-02-03T12:06:32.515Z,53.09
2019-02-03T12:07:08.002Z,53.76
2019-02-03T12:07:43.201Z,53.95
2019-02-03T12:08:18.501Z,56.89
2019-02-03T12:08:53.810Z,58.98
2019-02-03T12:09:29.136Z,61.74
2019-02-03T12:10:04.744Z,61.45
2019-02-03T12:10:40.352Z,57.28
2019-02-03T12:11:15.761Z,56.89
2019-02-03T12:12:00.806Z,60.79
2019-02-03T12:12:26.187Z,56.89
2019-02-03T12:13:01.474Z,52.81
2019-02-03T12:13:37.335Z,56.23
2019-02-03T12:14:12.500Z,51.48
2019-02-03T12:14:47.949Z,50.05
2019-02-03T12:15:23.267Z,47.77
2019-02-03T12:15:58.539Z,50.34
2019-02-03T12:16:34.150Z,50.05
2019-02-03T12:17:09.743Z,43.98
2019-02-03T12:17:45.253Z,42.74
2019-02-03T12:18:20.597Z,54.71
2019-02-03T12:18:55.844Z,55.76
2019-02-03T12:19:31.430Z,57.09
2019-02-03T12:20:07.141Z,58.70
2019-02-03T12:20:42.552Z,52.81
2019-02-03T12:21:17.972Z,53.28
2019-02-03T12:21:53.248Z,53.19
2019-02-03T12:22:28.839Z,58.22
2019-02-03T12:23:04.327Z,59.17
2019-02-03T12:23:39.523Z,60.60
2019-02-03T12:24:14.913Z,53.19
2019-02-03T12:24:50.430Z,53.19
2019-02-03T12:25:25.703Z,47.02
2019-02-03T12:26:00.947Z,46.25
2019-02-03T12:26:36.632Z,52.43
2019-02-03T12:27:11.276Z,49.58
2019-02-03T12:27:46.662Z,45.31
2019-02-03T12:28:22.264Z,45.21
2019-02-03T12:28:57.587Z,43.12
2019-02-03T12:29:32.767Z,40.75
2019-02-03T12:30:08.092Z,39.13
2019-02-03T12:30:43.392Z,40.75
2019-02-03T12:31:19.020Z,53.57
2019-02-03T12:31:54.213Z,52.81
2019-02-03T12:32:29.852Z,49.39
2019-02-03T12:33:05.238Z,51.20
2019-02-03T12:33:40.838Z,52.33
2019-02-03T12:34:16.051Z,48.16
2019-02-03T12:34:51.640Z,53.57
2019-02-03T12:35:26.965Z,52.24
2019-02-03T12:36:02.144Z,46.83
2019-02-03T12:36:39.880Z,50.15
2019-02-03T12:37:12.811Z,46.92
2019-02-03T12:37:48.376Z,50.05
2019-02-03T12:38:23.521Z,55.18
2019-02-03T12:38:58.901Z,55.57
2019-02-03T12:39:34.221Z,53.28
2019-02-03T12:40:09.799Z,48.82
2019-02-03T12:40:45.105Z,42.36
2019-02-03T12:41:20.691Z,40.84
2019-02-03T12:41:56.399Z,37.71
2019-02-03T12:42:32.325Z,35.14
2019-02-03T12:43:07.444Z,36.00
2019-02-03T12:43:42.941Z,37.80
2019-02-03T12:44:18.379Z,40.37
2019-02-03T12:44:53.595Z,36.19
2019-02-03T12:45:28.983Z,34.19
2019-02-03T12:46:04.484Z,31.72
2019-02-03T12:46:39.959Z,32.86
2019-02-03T12:47:15.380Z,34.38
2019-02-03T12:47:50.687Z,33.15
2019-02-03T12:48:25.921Z,34.57
2019-02-03T12:49:01.441Z,33.53
2019-02-03T12:49:36.756Z,37.23
2019-02-03T12:50:11.957Z,37.23
2019-02-03T12:50:47.643Z,37.99
2019-02-03T12:51:22.961Z,40.56
2019-02-03T12:51:58.259Z,38.28
2019-02-03T12:52:33.920Z,44.26
2019-02-03T12:53:09.347Z,43.02
2019-02-03T12:53:44.823Z,46.45
2019-02-03T12:54:20.133Z,42.55
2019-02-03T12:54:55.431Z,40.37
2019-02-03T12:55:30.844Z,35.90
2019-02-03T12:56:06.337Z,30.11
2019-02-03T12:56:41.656Z,30.49
